createdAt,value
2018-02-06T00:00:10.904Z,18.93
2018-02-06T00:02:41.873Z,20.37
2018-02-06T00:05:12.737Z,23.57
2018-02-06T00:07:44.257Z,20.10
2018-02-06T00:10:14.918Z,19.13
2018-02-06T00:12:46.598Z,22.70
2018-02-06T00:15:17.455Z,20.60
2018-02-06T00:17:49.072Z,17.77
2018-02-06T00:20:20.492Z,19.30
2018-02-06T00:22:53.413Z,17.00
2018-02-06T00:25:25.027Z,17.67
2018-02-06T00:27:55.975Z,19.00
2018-02-06T00:30:26.806Z,15.93
2018-02-06T00:32:57.677Z,18.67
2018-02-06T00:35:29.293Z,17.73
2018-02-06T00:38:00.163Z,18.30
2018-02-06T00:40:32.134Z,21.60
2018-02-06T00:43:03.769Z,16.00
2018-02-06T00:45:34.448Z,16.93
2018-02-06T00:48:05.446Z,17.20
2018-02-06T00:50:37.225Z,14.40
2018-02-06T00:53:08.262Z,17.10
2018-02-06T00:55:39.529Z,15.00
2018-02-06T00:58:10.372Z,19.60
2018-02-06T01:00:41.231Z,20.20
2018-02-06T01:03:11.898Z,18.60
2018-02-06T01:05:43.567Z,18.80
2018-02-06T01:08:15.217Z,13.73
2018-02-06T01:10:46.854Z,15.00
2018-02-06T01:13:17.654Z,14.43
2018-02-06T01:15:48.649Z,16.13
2018-02-06T01:18:20.265Z,17.73
2018-02-06T01:20:51.235Z,18.37
2018-02-06T01:23:22.994Z,19.20
2018-02-06T01:25:54.948Z,17.00
2018-02-06T01:28:25.824Z,16.77
2018-02-06T01:30:56.761Z,19.63
2018-02-06T01:33:27.310Z,20.90
2018-02-06T01:35:58.930Z,21.40
2018-02-06T01:38:30.183Z,21.37
2018-02-06T01:41:00.698Z,14.90
2018-02-06T01:43:32.365Z,20.80
2018-02-06T01:46:03.166Z,23.97
2018-02-06T01:48:34.686Z,21.33
2018-02-06T01:51:05.138Z,14.40
2018-02-06T01:53:36.408Z,16.47
2018-02-06T01:56:07.999Z,21.30
2018-02-06T01:58:39.013Z,21.77
2018-02-06T02:01:10.662Z,23.40
2018-02-06T02:03:42.462Z,17.67
2018-02-06T02:06:13.355Z,16.50
2018-02-06T02:08:45.372Z,22.67
2018-02-06T02:11:16.390Z,17.30
2018-02-06T02:13:47.506Z,18.00
2018-02-06T02:16:19.185Z,15.43
2018-02-06T02:18:50.156Z,16.60
2018-02-06T02:21:21.097Z,17.07
2018-02-06T02:23:52.188Z,15.40
2018-02-06T02:26:23.891Z,19.33
2018-02-06T02:28:55.723Z,16.33
2018-02-06T02:31:27.247Z,14.43
2018-02-06T02:33:59.007Z,18.10
2018-02-06T02:36:30.611Z,16.70
2018-02-06T02:39:01.354Z,15.00
2018-02-06T02:41:32.149Z,21.93
2018-02-06T04:39:53.230Z,16.13
2018-02-06T04:42:25.146Z,20.00
2018-02-06T04:44:56.310Z,16.20
2018-02-06T04:47:27.979Z,13.77
2018-02-06T04:50:00.165Z,16.40
2018-02-06T04:52:30.953Z,16.70
2018-02-06T04:55:01.807Z,22.33
2018-02-06T04:57:33.339Z,19.80
2018-02-06T05:00:04.306Z,21.63
2018-02-06T05:02:35.841Z,14.00
2018-02-06T05:05:06.768Z,18.03
2018-02-06T05:07:37.713Z,19.47
2018-02-06T05:10:08.451Z,14.93
2018-02-06T05:12:39.379Z,15.63
2018-02-06T05:15:10.051Z,15.63
2018-02-06T05:17:41.784Z,17.63
2018-02-06T05:20:12.749Z,19.40
2018-02-06T05:22:44.621Z,16.57
2018-02-06T05:25:15.635Z,22.17
2018-02-06T05:27:47.298Z,21.07
2018-02-06T05:30:19.027Z,19.43
2018-02-06T05:32:49.861Z,15.07
2018-02-06T05:35:20.829Z,16.40
2018-02-06T05:37:51.721Z,18.83
2018-02-06T05:40:23.473Z,14.43
2018-02-06T05:42:54.434Z,18.97
2018-02-06T05:45:25.258Z,15.83
2018-02-06T05:47:56.139Z,15.17
2018-02-06T05:50:27.635Z,17.53
2018-02-06T05:52:58.525Z,19.53
2018-02-06T05:55:30.090Z,18.57
2018-02-06T05:58:01.728Z,17.70
2018-02-06T06:00:33.190Z,16.00
2018-02-06T06:03:04.816Z,21.27
2018-02-06T06:05:35.514Z,22.50
2018-02-06T06:08:06.441Z,15.43
2018-02-06T06:10:37.448Z,16.43
2018-02-06T06:13:09.066Z,17.37
2018-02-06T06:15:40.045Z,17.93
2018-02-06T06:18:11.650Z,17.10
2018-02-06T06:20:42.842Z,13.00
2018-02-06T06:23:14.448Z,17.30
2018-02-06T06:25:45.537Z,20.50
2018-02-06T06:28:17.200Z,14.83
2018-02-06T06:30:48.906Z,24.63
2018-02-06T06:33:19.786Z,16.90
2018-02-06T06:35:51.536Z,15.63
2018-02-06T06:38:23.209Z,18.17
2018-02-06T06:40:54.877Z,16.33
2018-02-06T06:43:25.587Z,20.70
2018-02-06T06:45:57.243Z,16.87
2018-02-06T06:48:28.844Z,20.53
2018-02-06T06:50:59.595Z,16.30
2018-02-06T06:53:31.235Z,14.77
2018-02-06T06:56:02.181Z,16.07
2018-02-06T06:58:32.858Z,16.93
2018-02-06T07:01:04.609Z,17.67
2018-02-06T07:03:36.178Z,16.83
2018-02-06T07:06:07.834Z,22.57
2018-02-06T07:08:39.487Z,17.87
2018-02-06T07:11:11.126Z,16.63
2018-02-06T07:13:43.074Z,14.23
2018-02-06T07:16:13.966Z,16.93
2018-02-06T07:18:45.010Z,14.33
2018-02-06T07:21:15.995Z,19.00
2018-02-06T07:23:46.682Z,14.53
2018-02-06T07:26:17.578Z,13.30
2018-02-06T07:28:49.236Z,14.17
2018-02-06T07:31:20.884Z,14.03
2018-02-06T07:33:51.623Z,14.13
2018-02-06T07:36:23.176Z,16.37
2018-02-06T07:38:54.826Z,13.13
2018-02-06T07:41:26.603Z,15.40
2018-02-06T07:43:58.864Z,14.67
2018-02-06T07:46:30.237Z,14.93
2018-02-06T07:49:01.302Z,11.27
2018-02-06T07:51:32.262Z,20.60
2018-02-06T07:54:03.054Z,28.20
2018-02-06T07:56:34.140Z,12.27
2018-02-06T07:59:04.990Z,13.70
2018-02-06T08:01:35.656Z,13.47
2018-02-06T08:04:06.532Z,16.40
2018-02-06T08:06:37.467Z,18.50
2018-02-06T08:09:08.354Z,14.33
2018-02-06T08:11:40.001Z,14.10
2018-02-06T08:14:11.502Z,17.27
2018-02-06T08:16:42.210Z,16.07
2018-02-06T08:19:13.210Z,14.67
2018-02-06T08:21:44.889Z,14.00
2018-02-06T08:24:16.640Z,15.00
2018-02-06T08:26:48.114Z,13.60
2018-02-06T08:29:18.928Z,15.13
2018-02-06T08:31:50.492Z,14.10
2018-02-06T08:34:22.113Z,13.40
2018-02-06T08:36:52.811Z,10.67
2018-02-06T08:39:23.812Z,14.00
2018-02-06T08:41:55.473Z,20.20
2018-02-06T08:44:27.212Z,12.87
2018-02-06T08:46:57.935Z,14.90
2018-02-06T08:49:28.801Z,12.63
2018-02-06T08:52:01.761Z,14.03
2018-02-06T08:54:32.333Z,15.60
2018-02-06T08:57:03.094Z,13.40
2018-02-06T08:59:33.929Z,15.13
2018-02-06T09:02:04.853Z,14.17
2018-02-06T09:04:35.549Z,12.57
2018-02-06T09:07:07.058Z,16.70
2018-02-06T09:09:37.953Z,19.13
2018-02-06T09:12:09.453Z,14.23
2018-02-06T09:14:40.799Z,14.33
2018-02-06T09:17:11.695Z,20.67
2018-02-06T09:19:43.234Z,13.93
2018-02-06T09:22:14.903Z,12.80
2018-02-06T09:24:46.600Z,15.63
2018-02-06T09:27:17.409Z,16.70
2018-02-06T09:29:48.239Z,15.63
2018-02-06T09:32:19.047Z,12.77
2018-02-06T09:34:50.796Z,16.43
2018-02-06T09:37:21.685Z,17.97
2018-02-06T09:39:52.514Z,18.67
2018-02-06T09:42:23.416Z,19.53
2018-02-06T09:44:54.337Z,16.20
2018-02-06T09:47:25.013Z,13.97
2018-02-06T09:49:55.917Z,16.00
2018-02-06T09:52:26.762Z,18.87
2018-02-06T09:54:58.520Z,17.23
2018-02-06T09:57:30.066Z,20.77
2018-02-06T10:00:00.771Z,19.87
2018-02-06T10:02:31.646Z,26.10
2018-02-06T10:05:02.577Z,15.47
2018-02-06T10:07:33.375Z,13.60
2018-02-06T10:10:04.283Z,14.70
2018-02-06T10:12:35.078Z,18.67
2018-02-06T10:15:05.710Z,13.83
2018-02-06T10:17:36.561Z,16.20
2018-02-06T10:20:08.664Z,18.03
2018-02-06T10:22:40.701Z,18.13
2018-02-06T10:25:12.128Z,17.23
2018-02-06T10:27:43.457Z,15.87
2018-02-06T10:30:14.921Z,15.30
2018-02-06T10:32:46.321Z,17.57
2018-02-06T10:35:18.606Z,20.13
2018-02-06T10:37:50.096Z,12.63
2018-02-06T10:40:21.596Z,17.70
2018-02-06T10:42:53.885Z,15.00
2018-02-06T10:45:25.346Z,20.37
2018-02-06T10:48:04.080Z,16.70
2018-02-06T10:53:25.411Z,18.77
2018-02-06T10:58:41.879Z,18.07
2018-02-06T11:01:21.917Z,16.07
2018-02-06T11:03:54.541Z,17.20
2018-02-06T11:06:26.144Z,17.07
2018-02-06T11:08:58.354Z,18.57
2018-02-06T11:11:29.555Z,16.77
2018-02-06T11:14:01.530Z,17.27
2018-02-06T11:16:32.984Z,14.03
2018-02-06T11:19:04.541Z,19.23
2018-02-06T11:21:36.874Z,18.07
2018-02-06T11:24:08.387Z,14.17
2018-02-06T11:26:40.652Z,15.93
2018-02-06T11:29:12.785Z,16.10
2018-02-06T11:31:44.305Z,16.73
2018-02-06T11:34:15.691Z,19.43
2018-02-06T11:36:47.124Z,20.57
2018-02-06T11:39:18.839Z,19.07
2018-02-06T11:41:50.222Z,19.13
2018-02-06T11:44:21.416Z,14.30
2018-02-06T11:46:52.734Z,18.63
2018-02-06T11:49:24.200Z,17.10
2018-02-06T11:51:57.017Z,15.63
2018-02-06T11:54:28.570Z,23.30
2018-02-06T11:57:00.815Z,16.33
2018-02-06T11:59:32.962Z,18.53
2018-02-06T12:02:05.350Z,17.77
2018-02-06T12:04:37.611Z,16.37
2018-02-06T12:07:09.163Z,17.53
2018-02-06T12:09:41.710Z,22.20
2018-02-06T12:12:13.091Z,19.43
2018-02-06T12:14:44.760Z,16.73
2018-02-06T12:17:16.161Z,22.20
2018-02-06T12:19:47.921Z,17.20
2018-02-06T12:22:19.694Z,19.00
2018-02-06T12:24:51.227Z,17.53
2018-02-06T12:27:22.618Z,15.07
2018-02-06T12:29:54.349Z,23.50
2018-02-06T12:32:25.730Z,23.40
2018-02-06T12:34:58.487Z,24.77
2018-02-06T12:37:31.156Z,18.87
2018-02-06T12:40:03.558Z,20.50
2018-02-06T12:42:36.096Z,25.70
2018-02-06T12:45:07.489Z,23.43
2018-02-06T12:47:39.395Z,20.10
2018-02-06T12:50:11.085Z,28.10
2018-02-06T12:52:43.596Z,39.07
2018-02-06T12:55:15.366Z,25.30
2018-02-06T12:57:47.667Z,25.10
2018-02-06T13:00:20.295Z,24.27
2018-02-06T13:02:53.172Z,21.90
2018-02-06T13:05:25.057Z,21.50
2018-02-06T13:07:57.215Z,26.37
2018-02-06T13:10:29.795Z,21.23
2018-02-06T13:13:02.019Z,31.63
2018-02-06T13:15:34.288Z,30.03
2018-02-06T13:18:06.335Z,31.17
2018-02-06T13:20:38.866Z,23.53
2018-02-06T13:23:11.566Z,30.03
2018-02-06T13:25:43.295Z,25.43
2018-02-06T13:28:15.129Z,22.93
2018-02-06T13:30:47.176Z,25.90
2018-02-06T13:33:19.552Z,21.47
2018-02-06T13:35:52.798Z,24.60
2018-02-06T13:38:25.582Z,27.30
2018-02-06T13:40:59.858Z,25.90
2018-02-06T13:43:32.212Z,25.07
2018-02-06T13:46:05.541Z,31.83
2018-02-06T13:48:37.569Z,25.40
2018-02-06T13:51:09.569Z,22.33
2018-02-06T13:53:42.843Z,23.63
2018-02-06T13:56:15.510Z,26.60
2018-02-06T13:58:47.112Z,23.50
2018-02-06T14:01:19.894Z,22.67
2018-02-06T14:03:51.147Z,27.13
2018-02-06T14:06:22.373Z,27.53
2018-02-06T14:08:53.569Z,24.03
2018-02-06T14:11:25.985Z,20.63
2018-02-06T14:13:56.890Z,25.10
2018-02-06T14:16:29.049Z,24.83
2018-02-06T14:19:00.863Z,23.33
2018-02-06T14:21:31.979Z,27.73
2018-02-06T14:24:03.950Z,29.50
2018-02-06T14:26:35.957Z,21.97
2018-02-06T14:29:07.330Z,23.33
2018-02-06T14:31:39.390Z,25.33
2018-02-06T14:34:10.316Z,19.83
2018-02-06T14:36:41.769Z,20.27
2018-02-06T14:39:13.305Z,28.77
2018-02-06T14:41:44.542Z,24.67
2018-02-06T14:44:15.566Z,20.70
2018-02-06T14:46:46.841Z,21.57
2018-02-06T14:49:17.842Z,24.57
2018-02-06T14:51:49.974Z,26.83
2018-02-06T14:54:21.945Z,23.37
2018-02-06T14:56:54.041Z,23.80
2018-02-06T14:59:25.339Z,22.70
2018-02-06T15:01:56.728Z,22.13
2018-02-06T15:04:28.710Z,24.63
2018-02-06T15:06:59.845Z,20.80
2018-02-06T15:09:30.854Z,23.30
2018-02-06T15:12:01.942Z,21.73
2018-02-06T15:14:33.055Z,23.20
2018-02-06T15:17:04.910Z,22.30
2018-02-06T15:19:36.618Z,20.67
2018-02-06T15:22:07.547Z,23.57
2018-02-06T15:24:38.521Z,23.30
2018-02-06T15:27:09.801Z,20.30
2018-02-06T15:29:41.529Z,27.63
2018-02-06T15:32:12.389Z,23.90
2018-02-06T15:34:44.229Z,21.73
2018-02-06T15:37:15.383Z,26.37
2018-02-06T15:39:47.175Z,24.97
2018-02-06T15:42:18.573Z,25.17
2018-02-06T15:44:49.821Z,21.03
2018-02-06T15:47:21.218Z,22.93
2018-02-06T15:49:52.635Z,23.23
2018-02-06T15:52:23.849Z,21.87
2018-02-06T15:54:54.937Z,23.37
2018-02-06T15:57:27.142Z,20.13
2018-02-06T15:59:58.453Z,21.23
2018-02-06T16:02:30.712Z,21.40
2018-02-06T16:05:02.279Z,23.10
2018-02-06T16:07:33.886Z,25.33
2018-02-06T16:10:05.373Z,26.03
2018-02-06T16:12:37.325Z,25.80
2018-02-06T16:15:08.466Z,19.13
2018-02-06T16:17:39.317Z,26.57
2018-02-06T16:20:10.797Z,20.93
2018-02-06T16:22:41.793Z,24.30
2018-02-06T16:25:12.634Z,26.07
2018-02-06T16:27:43.438Z,23.53
2018-02-06T16:30:14.339Z,22.60
2018-02-06T16:32:45.250Z,22.10
2018-02-06T16:35:16.917Z,19.63
2018-02-06T16:37:48.625Z,24.13
2018-02-06T16:40:19.446Z,17.70
2018-02-06T16:42:50.326Z,27.40
2018-02-06T16:45:21.293Z,30.17
2018-02-06T16:47:52.294Z,31.67
2018-02-06T16:50:23.149Z,33.27
2018-02-06T16:52:54.915Z,33.40
2018-02-06T16:55:26.529Z,37.77
2018-02-06T16:57:57.390Z,35.60
2018-02-06T17:00:28.283Z,41.53
2018-02-06T17:02:59.267Z,33.00
2018-02-06T17:05:30.183Z,34.37
2018-02-06T17:08:01.034Z,33.30
2018-02-06T17:10:32.595Z,32.93
2018-02-06T17:13:04.859Z,32.60
2018-02-06T17:15:35.537Z,41.97
2018-02-06T17:18:06.422Z,38.77
2018-02-06T17:20:38.045Z,48.83
2018-02-06T17:23:09.026Z,39.07
2018-02-06T17:25:39.973Z,36.27
2018-02-06T17:28:10.798Z,35.50
2018-02-06T17:30:41.725Z,36.93
2018-02-06T17:33:12.597Z,36.63
2018-02-06T17:35:44.341Z,34.30
2018-02-06T17:38:15.277Z,31.10
2018-02-06T17:40:46.412Z,29.67
2018-02-06T17:43:17.287Z,33.43
2018-02-06T17:45:48.737Z,33.80
2018-02-06T17:48:19.657Z,31.27
2018-02-06T17:50:51.311Z,32.83
2018-02-06T17:53:22.953Z,37.20
2018-02-06T17:55:53.926Z,34.93
2018-02-06T17:58:25.555Z,33.10
2018-02-06T18:00:56.345Z,33.73
2018-02-06T18:03:27.215Z,37.47
2018-02-06T18:05:58.078Z,37.17
2018-02-06T18:08:29.626Z,39.90
2018-02-06T18:11:01.220Z,34.10
2018-02-06T18:13:31.945Z,38.37
2018-02-06T18:16:02.937Z,33.53
2018-02-06T18:18:35.404Z,32.83
2018-02-06T18:21:06.372Z,37.47
2018-02-06T18:23:38.121Z,41.03
2018-02-06T18:26:09.723Z,32.70
2018-02-06T18:28:40.730Z,34.17
2018-02-06T18:31:12.277Z,30.50
2018-02-06T18:33:43.802Z,35.83
2018-02-06T18:36:15.333Z,35.30
2018-02-06T18:38:46.244Z,34.00
2018-02-06T18:41:17.093Z,35.00
2018-02-06T18:43:48.062Z,36.40
2018-02-06T18:46:19.023Z,31.03
2018-02-06T18:48:50.770Z,28.80
2018-02-06T18:51:21.623Z,33.73
2018-02-06T18:53:53.090Z,32.57
2018-02-06T18:56:24.827Z,33.83
2018-02-06T18:58:55.777Z,30.20
2018-02-06T19:01:27.501Z,29.93
2018-02-06T19:03:58.954Z,32.97
2018-02-06T19:06:30.576Z,31.57
2018-02-06T19:09:01.441Z,33.20
2018-02-06T19:11:32.048Z,31.33
2018-02-06T19:14:03.030Z,41.07
2018-02-06T19:16:34.414Z,28.93
2018-02-06T19:19:05.350Z,38.13
2018-02-06T19:21:36.153Z,41.13
2018-02-06T19:24:07.030Z,34.97
2018-02-06T19:26:38.027Z,33.50
2018-02-06T19:29:08.815Z,32.00
2018-02-06T19:31:40.010Z,30.30
2018-02-06T19:34:11.647Z,35.30
2018-02-06T19:36:42.657Z,30.43
2018-02-06T19:39:13.946Z,36.17
2018-02-06T19:41:44.754Z,33.33
2018-02-06T19:44:15.290Z,32.90
2018-02-06T19:46:46.017Z,31.90
2018-02-06T19:49:16.893Z,27.70
2018-02-06T19:51:47.502Z,24.60
2018-02-06T19:54:18.254Z,32.33
2018-02-06T19:56:50.613Z,30.60
2018-02-06T19:59:21.553Z,30.70
2018-02-06T20:01:53.742Z,29.07
2018-02-06T20:04:25.405Z,30.97
2018-02-06T20:06:58.045Z,27.47
2018-02-06T20:09:28.530Z,31.60
2018-02-06T20:11:59.327Z,27.70
2018-02-06T20:14:29.989Z,24.43
2018-02-06T20:17:00.785Z,34.20
2018-02-06T20:19:31.520Z,27.17
2018-02-06T20:22:01.922Z,38.03
2018-02-06T20:24:32.870Z,31.60
2018-02-06T20:27:03.553Z,29.70
2018-02-06T20:29:35.181Z,25.83
2018-02-06T20:32:07.846Z,37.17
2018-02-06T20:34:38.710Z,27.10
2018-02-06T20:37:10.464Z,27.23
2018-02-06T20:39:42.229Z,28.17
2018-02-06T20:42:13.829Z,24.37
2018-02-06T20:44:44.659Z,33.13
2018-02-06T20:47:15.674Z,29.00
2018-02-06T20:49:47.275Z,30.43
2018-02-06T20:52:17.978Z,33.43
2018-02-06T20:54:48.861Z,34.17
2018-02-06T20:57:19.871Z,25.27
2018-02-06T20:59:50.566Z,32.17
2018-02-06T21:02:22.263Z,25.87
2018-02-06T21:04:52.979Z,29.83
2018-02-06T21:07:23.729Z,26.30
2018-02-06T21:09:54.578Z,29.30
2018-02-06T21:12:25.434Z,29.83
2018-02-06T21:14:57.813Z,28.80
2018-02-06T21:17:28.369Z,29.53
2018-02-06T21:19:59.158Z,29.33
2018-02-06T21:22:30.161Z,26.97
2018-02-06T21:25:01.211Z,25.27
2018-02-06T21:27:32.206Z,24.80
2018-02-06T21:30:03.869Z,22.70
2018-02-06T21:32:35.516Z,27.63
2018-02-06T21:35:06.334Z,35.03
2018-02-06T21:37:37.303Z,28.43
2018-02-06T21:40:09.037Z,26.97
2018-02-06T21:42:40.267Z,24.03
2018-02-06T21:45:11.027Z,30.10
2018-02-06T21:47:42.551Z,23.53
2018-02-06T21:50:13.401Z,24.37
2018-02-06T21:52:44.113Z,24.77
2018-02-06T21:55:14.957Z,25.07
2018-02-06T21:57:45.554Z,21.20
2018-02-06T22:00:16.394Z,23.63
2018-02-06T22:02:47.280Z,25.77
2018-02-06T22:05:17.825Z,28.63
2018-02-06T22:07:49.542Z,26.80
2018-02-06T22:10:20.387Z,31.93
2018-02-06T22:12:51.323Z,30.80
2018-02-06T22:15:22.185Z,26.93
2018-02-06T22:17:52.938Z,27.03
2018-02-06T22:20:24.366Z,22.30
2018-02-06T22:22:55.063Z,38.57
2018-02-06T22:25:25.839Z,27.07
2018-02-06T22:27:57.450Z,30.10
2018-02-06T22:30:28.685Z,20.20
2018-02-06T22:32:59.641Z,24.53
2018-02-06T22:35:30.474Z,29.40
2018-02-06T22:38:01.105Z,23.57
2018-02-06T22:40:32.274Z,27.23
2018-02-06T22:43:03.995Z,29.83
2018-02-06T22:45:34.923Z,23.00
2018-02-06T22:48:06.163Z,27.87
2018-02-06T22:50:37.402Z,23.83
2018-02-06T22:53:08.317Z,25.13
2018-02-06T22:55:40.161Z,25.80
2018-02-06T22:58:11.494Z,24.43
2018-02-06T23:00:42.337Z,27.40
2018-02-06T23:03:12.924Z,26.17
2018-02-06T23:05:43.832Z,30.33
2018-02-06T23:08:15.558Z,24.77
2018-02-06T23:10:46.713Z,28.60
2018-02-06T23:13:18.453Z,29.33
2018-02-06T23:15:49.333Z,24.40
2018-02-06T23:18:21.050Z,26.07
2018-02-06T23:20:52.330Z,24.83
2018-02-06T23:23:23.519Z,25.63
2018-02-06T23:25:53.934Z,23.00
2018-02-06T23:28:24.446Z,20.87
2018-02-06T23:30:55.694Z,26.70
2018-02-06T23:33:27.294Z,30.50
2018-02-06T23:35:58.310Z,21.73
2018-02-06T23:38:29.193Z,29.47
2018-02-06T23:41:00.130Z,27.50
2018-02-06T23:43:31.053Z,21.90
2018-02-06T23:46:01.904Z,31.53
2018-02-06T23:48:32.405Z,30.03
2018-02-06T23:51:03.232Z,27.30
2018-02-06T23:53:34.185Z,23.57
2018-02-06T23:56:05.044Z,26.97
2018-02-06T23:58:36.595Z,26.93
